Time;durP1;ratioP1;P1;durP2;ratioP2;P2;SDS_P1;SDS_P2;PMS_P1;PMS_P2;Temp;Humidity;BMP_temperature;BMP_pressure;BME280_temperature;BME280_humidity;BME280_pressure;Samples;Min_cycle;Max_cycle;Signal;HPM_P1;HPM_P2
2019/09/24 00:00:31;;;;;;;3.6;2.65;;;;;;;12.01;100;95410.1;;;;
2019/09/24 00:01:43;;;;;;;4.95;3.05;;;;;;;12.05;100;95408.12;;;;
2019/09/24 00:03:14;;;;;;;4.95;3.05;;;;;;;12.05;100;95408.12;;;;
2019/09/24 00:09:50;;;;;;;4.95;3.05;;;;;;;12.05;100;95408.12;;;;
2019/09/24 00:10:51;;;;;;;4.95;3.05;;;;;;;12.05;100;95408.12;;;;
2019/09/24 00:11:58;;;;;;;4.95;3.05;;;;;;;12.05;100;95408.12;;;;
2019/09/24 00:12:59;;;;;;;4.300001;2.8;;;;;;;12.04;100;95394.31;;;;
2019/09/24 00:14:00;;;;;;;4.300001;2.8;;;;;;;12.04;100;95394.31;;;;
2019/09/24 00:15:01;;;;;;;4.300001;2.8;;;;;;;12.04;100;95394.31;;;;
2019/09/24 00:16:04;;;;;;;4.300001;2.8;;;;;;;12.04;100;95394.31;;;;
2019/09/24 00:17:11;;;;;;;4.300001;2.8;;;;;;;12.04;100;95394.31;;;;
2019/09/24 00:18:13;;;;;;;4.300001;2.8;;;;;;;12.04;100;95394.31;;;;
2019/09/24 00:19:14;;;;;;;4.300001;2.8;;;;;;;12.04;100;95394.31;;;;
2019/09/24 00:20:15;;;;;;;4.300001;2.8;;;;;;;12.04;100;95394.31;;;;
2019/09/24 00:21:18;;;;;;;4.300001;2.8;;;;;;;12.04;100;95394.31;;;;
2019/09/24 00:22:20;;;;;;;4.300001;2.8;;;;;;;12.04;100;95394.31;;;;
2019/09/24 00:23:22;;;;;;;3.550001;2.7;;;;;;;12.06;100;95394.06;;;;
2019/09/24 00:24:23;;;;;;;3.550001;2.7;;;;;;;12.06;100;95394.06;;;;
2019/09/24 00:25:25;;;;;;;3.550001;2.7;;;;;;;12.06;100;95394.06;;;;
2019/09/24 00:26:50;;;;;;;3.550001;2.7;;;;;;;12.06;100;95394.06;;;;
2019/09/24 00:28:06;;;;;;;3.550001;2.7;;;;;;;12.06;100;95394.06;;;;
2019/09/24 00:29:07;;;;;;;3.550001;2.7;;;;;;;12.06;100;95394.06;;;;
2019/09/24 00:30:09;;;;;;;3.550001;2.7;;;;;;;12.06;100;95394.06;;;;
2019/09/24 00:31:13;;;;;;;3.550001;2.7;;;;;;;12.06;100;95394.06;;;;
2019/09/24 00:32:14;;;;;;;3.550001;2.7;;;;;;;12.06;100;95394.06;;;;
2019/09/24 00:33:16;;;;;;;3.550001;2.7;;;;;;;12.06;100;95394.06;;;;
2019/09/24 00:34:17;;;;;;;3.550001;2.7;;;;;;;12.06;100;95394.06;;;;
2019/09/24 00:35:18;;;;;;;3.550001;2.7;;;;;;;12.06;100;95394.06;;;;
2019/09/24 00:36:20;;;;;;;3.550001;2.7;;;;;;;12.06;100;95394.06;;;;
2019/09/24 00:37:21;;;;;;;3.550001;2.7;;;;;;;12.06;100;95394.06;;;;
2019/09/24 00:38:22;;;;;;;3.550001;2.7;;;;;;;12.06;100;95394.06;;;;
2019/09/24 00:39:23;;;;;;;3.550001;2.7;;;;;;;12.06;100;95394.06;;;;
2019/09/24 00:40:24;;;;;;;3.550001;2.7;;;;;;;12.06;100;95394.06;;;;
2019/09/24 00:41:26;;;;;;;3.550001;2.7;;;;;;;12.06;100;95394.06;;;;
2019/09/24 00:42:27;;;;;;;3.550001;2.7;;;;;;;12.06;100;95394.06;;;;
2019/09/24 00:43:28;;;;;;;3.550001;2.7;;;;;;;12.06;100;95394.06;;;;
2019/09/24 00:44:30;;;;;;;4.2;2.8;;;;;;;12.12;100;95380.51;;;;
2019/09/24 00:45:31;;;;;;;4.2;2.8;;;;;;;12.12;100;95380.51;;;;
2019/09/24 00:46:37;;;;;;;4.2;2.8;;;;;;;12.12;100;95380.51;;;;
2019/09/24 00:47:39;;;;;;;4.2;2.8;;;;;;;12.12;100;95380.51;;;;
2019/09/24 00:48:40;;;;;;;4.2;2.8;;;;;;;12.12;100;95380.51;;;;
2019/09/24 00:49:41;;;;;;;4.2;2.8;;;;;;;12.12;100;95380.51;;;;
2019/09/24 00:50:43;;;;;;;4.2;2.8;;;;;;;12.12;100;95380.51;;;;
2019/09/24 00:51:45;;;;;;;4.2;2.8;;;;;;;12.12;100;95380.51;;;;
2019/09/24 00:52:46;;;;;;;4.2;2.8;;;;;;;12.12;100;95380.51;;;;
2019/09/24 00:53:48;;;;;;;4.2;2.8;;;;;;;12.12;100;95380.51;;;;
2019/09/24 00:54:49;;;;;;;3.15;2.85;;;;;;;12.05;100;95373.49;;;;
2019/09/24 00:55:50;;;;;;;3.15;2.85;;;;;;;12.05;100;95373.49;;;;
2019/09/24 00:56:51;;;;;;;3.15;2.85;;;;;;;12.05;100;95373.49;;;;
2019/09/24 00:57:52;;;;;;;3.15;2.85;;;;;;;12.05;100;95373.49;;;;
2019/09/24 00:58:53;;;;;;;3.15;2.85;;;;;;;12.05;100;95373.49;;;;
2019/09/24 00:59:55;;;;;;;3.15;2.85;;;;;;;12.05;100;95373.49;;;;
2019/09/24 01:00:56;;;;;;;3.15;2.85;;;;;;;12.05;100;95373.49;;;;
2019/09/24 01:02:13;;;;;;;3.15;2.85;;;;;;;12.05;100;95373.49;;;;
2019/09/24 01:03:14;;;;;;;3.15;2.85;;;;;;;12.05;100;95373.49;;;;
2019/09/24 01:04:15;;;;;;;3.15;2.85;;;;;;;12.05;100;95373.49;;;;
2019/09/24 01:05:17;;;;;;;3.15;2.85;;;;;;;12.05;100;95373.49;;;;
2019/09/24 01:06:18;;;;;;;3.5;2.7;;;;;;;12.06;100;95365.54;;;;
2019/09/24 01:07:20;;;;;;;3.5;2.7;;;;;;;12.06;100;95365.54;;;;
2019/09/24 01:08:21;;;;;;;3.5;2.7;;;;;;;12.06;100;95365.54;;;;
2019/09/24 01:09:22;;;;;;;3.5;2.7;;;;;;;12.06;100;95365.54;;;;
2019/09/24 01:10:25;;;;;;;3.5;2.7;;;;;;;12.06;100;95365.54;;;;
2019/09/24 01:11:27;;;;;;;3.5;2.7;;;;;;;12.06;100;95365.54;;;;
2019/09/24 01:12:28;;;;;;;3.5;2.7;;;;;;;12.06;100;95365.54;;;;
2019/09/24 01:13:29;;;;;;;3.5;2.7;;;;;;;12.06;100;95365.54;;;;
2019/09/24 01:14:30;;;;;;;3.5;2.7;;;;;;;12.06;100;95365.54;;;;
2019/09/24 01:15:32;;;;;;;3.5;2.7;;;;;;;12.06;100;95365.54;;;;
2019/09/24 01:16:33;;;;;;;4.3;2.7;;;;;;;12.03;100;95367.5;;;;
2019/09/24 01:17:34;;;;;;;4.3;2.7;;;;;;;12.03;100;95367.5;;;;
2019/09/24 01:18:44;;;;;;;4.3;2.7;;;;;;;12.03;100;95367.5;;;;
2019/09/24 01:19:45;;;;;;;4.3;2.7;;;;;;;12.03;100;95367.5;;;;
2019/09/24 01:20:47;;;;;;;4.3;2.7;;;;;;;12.03;100;95367.5;;;;
2019/09/24 01:25:47;;;;;;;4.3;2.7;;;;;;;12.03;100;95367.5;;;;
2019/09/24 01:30:48;;;;;;;3.25;2.95;;;;;;;12.05;100;95364.01;;;;
2019/09/24 01:35:48;;;;;;;3.25;2.95;;;;;;;12.05;100;95364.01;;;;
2019/09/24 01:40:49;;;;;;;4.2;2.95;;;;;;;12.01;100;95359.63;;;;
2019/09/24 01:45:50;;;;;;;4.2;2.95;;;;;;;12.01;100;95359.63;;;;
2019/09/24 01:50:50;;;;;;;3.6;3.1;;;;;;;12.08;100;95353.52;;;;
2019/09/24 01:55:51;;;;;;;3.6;3.1;;;;;;;12.08;100;95353.52;;;;
2019/09/24 02:00:52;;;;;;;4.4;2.9;;;;;;;12.08;100;95349.05;;;;
2019/09/24 02:05:53;;;;;;;4.4;2.9;;;;;;;12.08;100;95349.05;;;;
2019/09/24 02:10:53;;;;;;;4.949999;2.8;;;;;;;12.12;100;95340.33;;;;
2019/09/24 02:15:54;;;;;;;4.949999;2.8;;;;;;;12.12;100;95340.33;;;;
2019/09/24 02:20:54;;;;;;;3.3;3;;;;;;;12.03;100;95336.24;;;;
2019/09/24 02:25:55;;;;;;;3.3;3;;;;;;;12.03;100;95336.24;;;;
2019/09/24 02:30:56;;;;;;;3;2.75;;;;;;;11.98;100;95331.29;;;;
2019/09/24 02:35:56;;;;;;;3;2.75;;;;;;;11.98;100;95331.29;;;;
2019/09/24 02:40:57;;;;;;;5.1;2.8;;;;;;;11.78;100;95337.13;;;;
2019/09/24 02:45:57;;;;;;;5.1;2.8;;;;;;;11.78;100;95337.13;;;;
2019/09/24 02:50:58;;;;;;;5.1;2.8;;;;;;;11.78;100;95337.13;;;;
2019/09/24 02:55:59;;;;;;;4.05;2.8;;;;;;;11.57;100;95309.9;;;;
2019/09/24 03:00:59;;;;;;;4.05;2.8;;;;;;;11.57;100;95309.9;;;;
2019/09/24 03:06:00;;;;;;;3.2;2.6;;;;;;;11.22;100;95303.8;;;;
2019/09/24 03:11:01;;;;;;;3.2;2.6;;;;;;;11.22;100;95303.8;;;;
2019/09/24 03:16:01;;;;;;;4.7;2.55;;;;;;;10.96;100;95293.39;;;;
2019/09/24 03:21:02;;;;;;;4.7;2.55;;;;;;;10.96;100;95293.39;;;;
2019/09/24 03:26:02;;;;;;;3.25;2.95;;;;;;;10.66;100;95294.5;;;;
2019/09/24 03:31:03;;;;;;;3.25;2.95;;;;;;;10.66;100;95294.5;;;;
2019/09/24 03:36:04;;;;;;;3.850001;2.9;;;;;;;10.51;100;95283.87;;;;
2019/09/24 03:41:04;;;;;;;3.850001;2.9;;;;;;;10.51;100;95283.87;;;;
2019/09/24 03:46:05;;;;;;;3.25;2.95;;;;;;;10.37;100;95272.92;;;;
2019/09/24 03:51:05;;;;;;;3.25;2.95;;;;;;;10.37;100;95272.92;;;;
2019/09/24 03:56:06;;;;;;;4.299999;3.2;;;;;;;10.39;100;95270.9;;;;
2019/09/24 04:01:07;;;;;;;4.299999;3.2;;;;;;;10.39;100;95270.9;;;;
2019/09/24 04:06:07;;;;;;;4;3.1;;;;;;;10.38;100;95266.46;;;;
2019/09/24 04:11:08;;;;;;;4;3.1;;;;;;;10.38;100;95266.46;;;;
2019/09/24 04:16:08;;;;;;;4;3.1;;;;;;;10.38;100;95266.46;;;;
2019/09/24 04:21:09;;;;;;;3.3;2.9;;;;;;;10.46;100;95266.11;;;;
2019/09/24 04:26:10;;;;;;;3.3;2.9;;;;;;;10.46;100;95266.11;;;;
2019/09/24 04:31:10;;;;;;;4.3;3.4;;;;;;;10.47;100;95251.12;;;;
2019/09/24 04:36:11;;;;;;;4.3;3.4;;;;;;;10.47;100;95251.12;;;;
2019/09/24 04:41:11;;;;;;;3.65;3.25;;;;;;;10.52;100;95228.7;;;;
2019/09/24 04:46:12;;;;;;;3.65;3.25;;;;;;;10.52;100;95228.7;;;;
2019/09/24 04:49:13;;;;;;;5.4;3.4;;;;;;;10.42;100;95218.63;;;;
2019/09/24 04:50:14;;;;;;;5.4;3.4;;;;;;;10.42;100;95218.63;;;;
2019/09/24 04:52:13;;;;;;;5.4;3.4;;;;;;;10.42;100;95218.63;;;;
2019/09/24 04:53:14;;;;;;;5.4;3.4;;;;;;;10.42;100;95218.63;;;;
2019/09/24 04:54:15;;;;;;;5.4;3.4;;;;;;;10.42;100;95218.63;;;;
2019/09/24 04:55:36;;;;;;;5.4;3.4;;;;;;;10.42;100;95218.63;;;;
2019/09/24 04:56:37;;;;;;;5.4;3.4;;;;;;;10.42;100;95218.63;;;;
2019/09/24 04:57:38;;;;;;;5.4;3.4;;;;;;;10.42;100;95218.63;;;;
2019/09/24 04:58:39;;;;;;;5.4;3.4;;;;;;;10.42;100;95218.63;;;;
2019/09/24 04:59:40;;;;;;;4.699999;3.299999;;;;;;;10.29;100;95199.18;;;;
2019/09/24 05:00:42;;;;;;;4.699999;3.299999;;;;;;;10.29;100;95199.18;;;;
2019/09/24 05:01:44;;;;;;;4.699999;3.299999;;;;;;;10.29;100;95199.18;;;;
2019/09/24 05:02:45;;;;;;;4.699999;3.299999;;;;;;;10.29;100;95199.18;;;;
2019/09/24 05:03:46;;;;;;;4.699999;3.299999;;;;;;;10.29;100;95199.18;;;;
2019/09/24 05:04:47;;;;;;;4.699999;3.299999;;;;;;;10.29;100;95199.18;;;;
2019/09/24 05:05:49;;;;;;;4.699999;3.299999;;;;;;;10.29;100;95199.18;;;;
2019/09/24 05:14:50;;;;;;;4.3;3.2;;;;;;;10;100;95192.27;;;;
2019/09/24 05:21:03;;;;;;;4.550001;3.2;;;;;;;9.89;100;95195.78;;;;
2019/09/24 05:23:54;;;;;;;4.550001;3.2;;;;;;;9.89;100;95195.78;;;;
2019/09/24 05:24:55;;;;;;;4.550001;3.2;;;;;;;9.89;100;95195.78;;;;
2019/09/24 05:25:56;;;;;;;4.550001;3.2;;;;;;;9.89;100;95195.78;;;;
2019/09/24 05:27:54;;;;;;;4.550001;3.2;;;;;;;9.89;100;95195.78;;;;
2019/09/24 05:29:26;;;;;;;4.550001;3.2;;;;;;;9.89;100;95195.78;;;;
2019/09/24 05:30:32;;;;;;;4.550001;3.2;;;;;;;9.89;100;95195.78;;;;
2019/09/24 05:32:21;;;;;;;4.599999;3;;;;;;;9.73;100;95182.99;;;;
2019/09/24 05:33:23;;;;;;;4.599999;3;;;;;;;9.73;100;95182.99;;;;
2019/09/24 05:34:25;;;;;;;4.599999;3;;;;;;;9.73;100;95182.99;;;;
2019/09/24 05:35:43;;;;;;;4.599999;3;;;;;;;9.73;100;95182.99;;;;
2019/09/24 05:36:47;;;;;;;4.599999;3;;;;;;;9.73;100;95182.99;;;;
2019/09/24 05:37:48;;;;;;;4.599999;3;;;;;;;9.73;100;95182.99;;;;
2019/09/24 05:38:49;;;;;;;4.599999;3;;;;;;;9.73;100;95182.99;;;;
2019/09/24 05:39:51;;;;;;;4.599999;3;;;;;;;9.73;100;95182.99;;;;
2019/09/24 05:40:52;;;;;;;4.599999;3;;;;;;;9.73;100;95182.99;;;;
2019/09/24 05:42:09;;;;;;;4.1;3.1;;;;;;;9.72;100;95207.9;;;;
2019/09/24 05:43:10;;;;;;;4.1;3.1;;;;;;;9.72;100;95207.9;;;;
2019/09/24 05:44:11;;;;;;;4.1;3.1;;;;;;;9.72;100;95207.9;;;;
2019/09/24 05:45:12;;;;;;;4.1;3.1;;;;;;;9.72;100;95207.9;;;;
2019/09/24 05:46:14;;;;;;;4.1;3.1;;;;;;;9.72;100;95207.9;;;;
2019/09/24 05:47:15;;;;;;;4.1;3.1;;;;;;;9.72;100;95207.9;;;;
2019/09/24 05:48:16;;;;;;;4.1;3.1;;;;;;;9.72;100;95207.9;;;;
2019/09/24 05:49:17;;;;;;;4.1;3.1;;;;;;;9.72;100;95207.9;;;;
2019/09/24 05:50:19;;;;;;;4.1;3.1;;;;;;;9.72;100;95207.9;;;;
2019/09/24 05:51:21;;;;;;;4.1;3.1;;;;;;;9.72;100;95207.9;;;;
2019/09/24 05:52:22;;;;;;;5.949999;3.6;;;;;;;9.66;100;95210.17;;;;
2019/09/24 05:53:24;;;;;;;5.949999;3.6;;;;;;;9.66;100;95210.17;;;;
2019/09/24 05:54:25;;;;;;;5.949999;3.6;;;;;;;9.66;100;95210.17;;;;
2019/09/24 05:55:27;;;;;;;5.949999;3.6;;;;;;;9.66;100;95210.17;;;;
2019/09/24 05:56:28;;;;;;;5.949999;3.6;;;;;;;9.66;100;95210.17;;;;
2019/09/24 05:57:29;;;;;;;5.949999;3.6;;;;;;;9.66;100;95210.17;;;;
2019/09/24 05:58:30;;;;;;;5.949999;3.6;;;;;;;9.66;100;95210.17;;;;
2019/09/24 05:59:32;;;;;;;5.949999;3.6;;;;;;;9.66;100;95210.17;;;;
2019/09/24 06:00:33;;;;;;;5.949999;3.6;;;;;;;9.66;100;95210.17;;;;
2019/09/24 06:01:35;;;;;;;5.949999;3.6;;;;;;;9.66;100;95210.17;;;;
2019/09/24 06:02:37;;;;;;;5.25;3.65;;;;;;;9.68;100;95210.77;;;;
2019/09/24 06:03:38;;;;;;;5.25;3.65;;;;;;;9.68;100;95210.77;;;;
2019/09/24 06:04:39;;;;;;;5.25;3.65;;;;;;;9.68;100;95210.77;;;;
2019/09/24 06:05:40;;;;;;;5.25;3.65;;;;;;;9.68;100;95210.77;;;;
2019/09/24 06:06:42;;;;;;;5.25;3.65;;;;;;;9.68;100;95210.77;;;;
2019/09/24 06:07:43;;;;;;;5.25;3.65;;;;;;;9.68;100;95210.77;;;;
2019/09/24 06:08:44;;;;;;;5.25;3.65;;;;;;;9.68;100;95210.77;;;;
2019/09/24 06:09:45;;;;;;;5.25;3.65;;;;;;;9.68;100;95210.77;;;;
2019/09/24 06:10:46;;;;;;;5.25;3.65;;;;;;;9.68;100;95210.77;;;;
2019/09/24 06:12:11;;;;;;;5.25;3.65;;;;;;;9.68;100;95210.77;;;;
2019/09/24 06:13:12;;;;;;;5.7;3.5;;;;;;;9.67;100;95239.31;;;;
2019/09/24 06:14:14;;;;;;;5.7;3.5;;;;;;;9.67;100;95239.31;;;;
2019/09/24 06:15:15;;;;;;;5.7;3.5;;;;;;;9.67;100;95239.31;;;;
2019/09/24 06:16:16;;;;;;;5.7;3.5;;;;;;;9.67;100;95239.31;;;;
2019/09/24 06:17:17;;;;;;;5.7;3.5;;;;;;;9.67;100;95239.31;;;;
2019/09/24 06:18:19;;;;;;;5.7;3.5;;;;;;;9.67;100;95239.31;;;;
2019/09/24 06:19:20;;;;;;;5.7;3.5;;;;;;;9.67;100;95239.31;;;;
2019/09/24 06:20:22;;;;;;;5.7;3.5;;;;;;;9.67;100;95239.31;;;;
2019/09/24 06:21:23;;;;;;;5.7;3.5;;;;;;;9.67;100;95239.31;;;;
2019/09/24 06:22:25;;;;;;;5.7;3.5;;;;;;;9.67;100;95239.31;;;;
2019/09/24 06:23:26;;;;;;;5.7;3.5;;;;;;;9.67;100;95239.31;;;;
2019/09/24 06:24:27;;;;;;;6.8;3.7;;;;;;;9.9;100;95229.8;;;;
2019/09/24 06:25:29;;;;;;;6.8;3.7;;;;;;;9.9;100;95229.8;;;;
2019/09/24 06:26:30;;;;;;;6.8;3.7;;;;;;;9.9;100;95229.8;;;;
2019/09/24 06:27:31;;;;;;;6.8;3.7;;;;;;;9.9;100;95229.8;;;;
2019/09/24 06:28:32;;;;;;;6.8;3.7;;;;;;;9.9;100;95229.8;;;;
2019/09/24 06:29:33;;;;;;;6.8;3.7;;;;;;;9.9;100;95229.8;;;;
2019/09/24 06:30:34;;;;;;;6.8;3.7;;;;;;;9.9;100;95229.8;;;;
2019/09/24 06:31:36;;;;;;;6.8;3.7;;;;;;;9.9;100;95229.8;;;;
2019/09/24 06:32:37;;;;;;;6.8;3.7;;;;;;;9.9;100;95229.8;;;;
2019/09/24 06:33:38;;;;;;;6.8;3.7;;;;;;;9.9;100;95229.8;;;;
2019/09/24 06:34:39;;;;;;;6.4;4.5;;;;;;;10.52;100;95242.21;;;;
2019/09/24 06:35:40;;;;;;;6.4;4.5;;;;;;;10.52;100;95242.21;;;;
2019/09/24 06:36:41;;;;;;;6.4;4.5;;;;;;;10.52;100;95242.21;;;;
2019/09/24 06:37:43;;;;;;;6.4;4.5;;;;;;;10.52;100;95242.21;;;;
2019/09/24 06:38:44;;;;;;;6.4;4.5;;;;;;;10.52;100;95242.21;;;;
2019/09/24 06:39:45;;;;;;;6.4;4.5;;;;;;;10.52;100;95242.21;;;;
2019/09/24 06:40:46;;;;;;;6.4;4.5;;;;;;;10.52;100;95242.21;;;;
2019/09/24 06:42:07;;;;;;;6.4;4.5;;;;;;;10.52;100;95242.21;;;;
2019/09/24 06:43:08;;;;;;;6.4;4.5;;;;;;;10.52;100;95242.21;;;;
2019/09/24 06:44:09;;;;;;;6.4;4.5;;;;;;;10.52;100;95242.21;;;;
2019/09/24 06:45:11;;;;;;;6.05;4.050001;;;;;;;11.04;100;95266.96;;;;
2019/09/24 06:46:12;;;;;;;6.05;4.050001;;;;;;;11.04;100;95266.96;;;;
2019/09/24 06:47:13;;;;;;;6.05;4.050001;;;;;;;11.04;100;95266.96;;;;
2019/09/24 06:48:17;;;;;;;6.05;4.050001;;;;;;;11.04;100;95266.96;;;;
2019/09/24 06:49:18;;;;;;;6.05;4.050001;;;;;;;11.04;100;95266.96;;;;
2019/09/24 06:50:19;;;;;;;6.05;4.050001;;;;;;;11.04;100;95266.96;;;;
2019/09/24 06:51:21;;;;;;;6.05;4.050001;;;;;;;11.04;100;95266.96;;;;
2019/09/24 06:52:22;;;;;;;6.05;4.050001;;;;;;;11.04;100;95266.96;;;;
2019/09/24 06:53:24;;;;;;;6.05;4.050001;;;;;;;11.04;100;95266.96;;;;
2019/09/24 06:54:25;;;;;;;6.05;4.050001;;;;;;;11.04;100;95266.96;;;;
2019/09/24 06:55:26;;;;;;;6.05;4.050001;;;;;;;11.04;100;95266.96;;;;
2019/09/24 06:56:28;;;;;;;7.3;4.5;;;;;;;11.25;100;95269.94;;;;
2019/09/24 06:57:29;;;;;;;7.3;4.5;;;;;;;11.25;100;95269.94;;;;
2019/09/24 06:58:31;;;;;;;7.3;4.5;;;;;;;11.25;100;95269.94;;;;
2019/09/24 06:59:32;;;;;;;7.3;4.5;;;;;;;11.25;100;95269.94;;;;
2019/09/24 07:00:33;;;;;;;7.3;4.5;;;;;;;11.25;100;95269.94;;;;
2019/09/24 07:01:47;;;;;;;7.3;4.5;;;;;;;11.25;100;95269.94;;;;
2019/09/24 07:03:12;;;;;;;7.3;4.5;;;;;;;11.25;100;95269.94;;;;
2019/09/24 07:04:13;;;;;;;7.3;4.5;;;;;;;11.25;100;95269.94;;;;
2019/09/24 07:05:14;;;;;;;7.3;4.5;;;;;;;11.25;100;95269.94;;;;
2019/09/24 07:06:18;;;;;;;6.400001;4.05;;;;;;;11.44;100;95257.34;;;;
2019/09/24 07:07:19;;;;;;;6.400001;4.05;;;;;;;11.44;100;95257.34;;;;
2019/09/24 07:08:20;;;;;;;6.400001;4.05;;;;;;;11.44;100;95257.34;;;;
2019/09/24 07:09:22;;;;;;;6.400001;4.05;;;;;;;11.44;100;95257.34;;;;
2019/09/24 07:10:23;;;;;;;6.400001;4.05;;;;;;;11.44;100;95257.34;;;;
2019/09/24 07:11:24;;;;;;;6.400001;4.05;;;;;;;11.44;100;95257.34;;;;
2019/09/24 07:12:28;;;;;;;6.400001;4.05;;;;;;;11.44;100;95257.34;;;;
2019/09/24 07:13:30;;;;;;;6.400001;4.05;;;;;;;11.44;100;95257.34;;;;
2019/09/24 07:14:31;;;;;;;6.400001;4.05;;;;;;;11.44;100;95257.34;;;;
2019/09/24 07:15:32;;;;;;;6.400001;4.05;;;;;;;11.44;100;95257.34;;;;
2019/09/24 07:16:33;;;;;;;6.400001;4.05;;;;;;;11.44;100;95257.34;;;;
2019/09/24 07:17:34;;;;;;;7.050001;3.9;;;;;;;14.49;100;95238.69;;;;
2019/09/24 07:18:36;;;;;;;7.050001;3.9;;;;;;;14.49;100;95238.69;;;;
2019/09/24 07:19:37;;;;;;;7.050001;3.9;;;;;;;14.49;100;95238.69;;;;
2019/09/24 07:20:38;;;;;;;7.050001;3.9;;;;;;;14.49;100;95238.69;;;;
2019/09/24 07:21:39;;;;;;;7.050001;3.9;;;;;;;14.49;100;95238.69;;;;
2019/09/24 07:22:41;;;;;;;7.050001;3.9;;;;;;;14.49;100;95238.69;;;;
2019/09/24 07:23:42;;;;;;;7.050001;3.9;;;;;;;14.49;100;95238.69;;;;
2019/09/24 07:24:44;;;;;;;7.050001;3.9;;;;;;;14.49;100;95238.69;;;;
2019/09/24 07:25:45;;;;;;;7.050001;3.9;;;;;;;14.49;100;95238.69;;;;
2019/09/24 07:27:56;;;;;;;7.050001;3.9;;;;;;;14.49;100;95238.69;;;;
2019/09/24 07:28:58;;;;;;;3.45;2.2;;;;;;;20.25;93.57617;95226.83;;;;
2019/09/24 07:29:59;;;;;;;3.45;2.2;;;;;;;20.25;93.57617;95226.83;;;;
2019/09/24 07:31:00;;;;;;;3.45;2.2;;;;;;;20.25;93.57617;95226.83;;;;
2019/09/24 07:32:01;;;;;;;3.45;2.2;;;;;;;20.25;93.57617;95226.83;;;;
2019/09/24 07:33:03;;;;;;;3.45;2.2;;;;;;;20.25;93.57617;95226.83;;;;
2019/09/24 07:34:04;;;;;;;3.45;2.2;;;;;;;20.25;93.57617;95226.83;;;;
2019/09/24 07:35:05;;;;;;;3.45;2.2;;;;;;;20.25;93.57617;95226.83;;;;
2019/09/24 07:36:08;;;;;;;3.45;2.2;;;;;;;20.25;93.57617;95226.83;;;;
2019/09/24 07:37:09;;;;;;;3.45;2.2;;;;;;;20.25;93.57617;95226.83;;;;
2019/09/24 07:38:10;;;;;;;3.5;2.4;;;;;;;24.55;84.37891;95229.54;;;;
2019/09/24 07:39:11;;;;;;;3.5;2.4;;;;;;;24.55;84.37891;95229.54;;;;
2019/09/24 07:40:13;;;;;;;3.5;2.4;;;;;;;24.55;84.37891;95229.54;;;;
2019/09/24 07:41:15;;;;;;;3.5;2.4;;;;;;;24.55;84.37891;95229.54;;;;
2019/09/24 07:42:16;;;;;;;3.5;2.4;;;;;;;24.55;84.37891;95229.54;;;;
2019/09/24 07:43:18;;;;;;;3.5;2.4;;;;;;;24.55;84.37891;95229.54;;;;
2019/09/24 07:44:19;;;;;;;3.5;2.4;;;;;;;24.55;84.37891;95229.54;;;;
2019/09/24 07:45:20;;;;;;;3.5;2.4;;;;;;;24.55;84.37891;95229.54;;;;
2019/09/24 07:46:22;;;;;;;3.5;2.4;;;;;;;24.55;84.37891;95229.54;;;;
2019/09/24 07:47:23;;;;;;;3.5;2.4;;;;;;;24.55;84.37891;95229.54;;;;
2019/09/24 07:48:24;;;;;;;3.5;2.4;;;;;;;24.55;84.37891;95229.54;;;;
2019/09/24 07:49:25;;;;;;;5.749999;2.2;;;;;;;27.66;76.52051;95221.18;;;;
2019/09/24 07:50:27;;;;;;;5.749999;2.2;;;;;;;27.66;76.52051;95221.18;;;;
2019/09/24 07:51:28;;;;;;;5.749999;2.2;;;;;;;27.66;76.52051;95221.18;;;;
2019/09/24 07:52:29;;;;;;;5.749999;2.2;;;;;;;27.66;76.52051;95221.18;;;;
2019/09/24 07:53:30;;;;;;;5.749999;2.2;;;;;;;27.66;76.52051;95221.18;;;;
2019/09/24 07:54:32;;;;;;;5.749999;2.2;;;;;;;27.66;76.52051;95221.18;;;;
2019/09/24 07:55:33;;;;;;;5.749999;2.2;;;;;;;27.66;76.52051;95221.18;;;;
2019/09/24 07:56:34;;;;;;;5.749999;2.2;;;;;;;27.66;76.52051;95221.18;;;;
2019/09/24 07:57:35;;;;;;;5.749999;2.2;;;;;;;27.66;76.52051;95221.18;;;;
2019/09/24 07:58:37;;;;;;;5.749999;2.2;;;;;;;27.66;76.52051;95221.18;;;;
2019/09/24 07:59:38;;;;;;;4.050001;1.9;;;;;;;29.9;69.73047;95209.7;;;;
2019/09/24 08:00:39;;;;;;;4.050001;1.9;;;;;;;29.9;69.73047;95209.7;;;;
2019/09/24 08:01:47;;;;;;;4.050001;1.9;;;;;;;29.9;69.73047;95209.7;;;;
2019/09/24 08:02:48;;;;;;;4.050001;1.9;;;;;;;29.9;69.73047;95209.7;;;;
2019/09/24 08:03:49;;;;;;;4.050001;1.9;;;;;;;29.9;69.73047;95209.7;;;;
2019/09/24 08:04:50;;;;;;;4.050001;1.9;;;;;;;29.9;69.73047;95209.7;;;;
2019/09/24 08:05:51;;;;;;;4.050001;1.9;;;;;;;29.9;69.73047;95209.7;;;;
2019/09/24 08:06:53;;;;;;;4.050001;1.9;;;;;;;29.9;69.73047;95209.7;;;;
2019/09/24 08:07:54;;;;;;;4.050001;1.9;;;;;;;29.9;69.73047;95209.7;;;;
2019/09/24 08:08:55;;;;;;;4.050001;1.9;;;;;;;29.9;69.73047;95209.7;;;;
2019/09/24 08:09:56;;;;;;;4.050001;1.9;;;;;;;29.9;69.73047;95209.7;;;;
2019/09/24 08:10:57;;;;;;;3.55;2.2;;;;;;;31.77;62.11621;95223.78;;;;
2019/09/24 08:11:58;;;;;;;3.55;2.2;;;;;;;31.77;62.11621;95223.78;;;;
2019/09/24 08:12:59;;;;;;;3.55;2.2;;;;;;;31.77;62.11621;95223.78;;;;
2019/09/24 08:14:00;;;;;;;3.55;2.2;;;;;;;31.77;62.11621;95223.78;;;;
2019/09/24 08:15:02;;;;;;;3.55;2.2;;;;;;;31.77;62.11621;95223.78;;;;
2019/09/24 08:16:05;;;;;;;3.55;2.2;;;;;;;31.77;62.11621;95223.78;;;;
2019/09/24 08:17:06;;;;;;;3.55;2.2;;;;;;;31.77;62.11621;95223.78;;;;
2019/09/24 08:18:08;;;;;;;3.55;2.2;;;;;;;31.77;62.11621;95223.78;;;;
2019/09/24 08:19:09;;;;;;;3.55;2.2;;;;;;;31.77;62.11621;95223.78;;;;
2019/09/24 08:20:10;;;;;;;3.55;2.2;;;;;;;31.77;62.11621;95223.78;;;;
2019/09/24 08:21:12;;;;;;;3.45;2.299999;;;;;;;33.37;56.83594;95226.26;;;;
2019/09/24 08:22:13;;;;;;;3.45;2.299999;;;;;;;33.37;56.83594;95226.26;;;;
2019/09/24 08:23:15;;;;;;;3.45;2.299999;;;;;;;33.37;56.83594;95226.26;;;;
2019/09/24 08:24:16;;;;;;;3.45;2.299999;;;;;;;33.37;56.83594;95226.26;;;;
2019/09/24 08:25:17;;;;;;;3.45;2.299999;;;;;;;33.37;56.83594;95226.26;;;;
2019/09/24 08:26:19;;;;;;;3.45;2.299999;;;;;;;33.37;56.83594;95226.26;;;;
2019/09/24 08:27:20;;;;;;;3.45;2.299999;;;;;;;33.37;56.83594;95226.26;;;;
2019/09/24 08:28:21;;;;;;;3.45;2.299999;;;;;;;33.37;56.83594;95226.26;;;;
2019/09/24 08:29:22;;;;;;;3.45;2.299999;;;;;;;33.37;56.83594;95226.26;;;;
2019/09/24 08:30:23;;;;;;;3.45;2.299999;;;;;;;33.37;56.83594;95226.26;;;;
2019/09/24 08:31:26;;;;;;;2.849999;2.15;;;;;;;34.94;51.98145;95197.91;;;;
2019/09/24 08:32:27;;;;;;;2.849999;2.15;;;;;;;34.94;51.98145;95197.91;;;;
2019/09/24 08:33:28;;;;;;;2.849999;2.15;;;;;;;34.94;51.98145;95197.91;;;;
2019/09/24 08:34:29;;;;;;;2.849999;2.15;;;;;;;34.94;51.98145;95197.91;;;;
2019/09/24 08:35:30;;;;;;;2.849999;2.15;;;;;;;34.94;51.98145;95197.91;;;;
2019/09/24 08:36:32;;;;;;;2.849999;2.15;;;;;;;34.94;51.98145;95197.91;;;;
2019/09/24 08:37:33;;;;;;;2.849999;2.15;;;;;;;34.94;51.98145;95197.91;;;;
2019/09/24 08:38:34;;;;;;;2.849999;2.15;;;;;;;34.94;51.98145;95197.91;;;;
2019/09/24 08:39:35;;;;;;;2.849999;2.15;;;;;;;34.94;51.98145;95197.91;;;;
2019/09/24 08:40:36;;;;;;;2.849999;2.15;;;;;;;34.94;51.98145;95197.91;;;;
2019/09/24 08:41:38;;;;;;;2.849999;2.15;;;;;;;34.94;51.98145;95197.91;;;;
2019/09/24 08:42:39;;;;;;;2.8;2.3;;;;;;;36.09;48.32227;95170.34;;;;
2019/09/24 08:43:40;;;;;;;2.8;2.3;;;;;;;36.09;48.32227;95170.34;;;;
2019/09/24 08:44:41;;;;;;;4;2.1;;;;;;;36.24;44.04102;95164.34;;;;
2019/09/24 08:45:42;;;;;;;4;2.1;;;;;;;36.24;44.04102;95164.34;;;;
2019/09/24 08:47:00;;;;;;;4;2.1;;;;;;;36.24;44.04102;95164.34;;;;
2019/09/24 08:48:01;;;;;;;3.05;2.05;;;;;;;36.46;41.54297;95160.93;;;;
2019/09/24 08:49:03;;;;;;;3.05;2.05;;;;;;;36.46;41.54297;95160.93;;;;
2019/09/24 08:50:05;;;;;;;2.4;1.8;;;;;;;36.66;39.72754;95161.07;;;;
2019/09/24 08:51:08;;;;;;;2.4;1.8;;;;;;;36.66;39.72754;95161.07;;;;
2019/09/24 08:52:10;;;;;;;2.4;1.8;;;;;;;36.66;39.72754;95161.07;;;;
2019/09/24 08:53:11;;;;;;;3.05;1.9;;;;;;;36.85;37.88574;95156.64;;;;
2019/09/24 08:54:12;;;;;;;3.05;1.9;;;;;;;36.85;37.88574;95156.64;;;;
2019/09/24 08:55:13;;;;;;;3.15;1.8;;;;;;;37.12;35.93262;95147.89;;;;
2019/09/24 08:56:17;;;;;;;3.15;1.8;;;;;;;37.12;35.93262;95147.89;;;;
2019/09/24 08:57:18;;;;;;;3.15;1.8;;;;;;;37.12;35.93262;95147.89;;;;
2019/09/24 08:58:20;;;;;;;2.75;1.8;;;;;;;37.37;34.33105;95136.92;;;;
2019/09/24 08:59:21;;;;;;;2.75;1.8;;;;;;;37.37;34.33105;95136.92;;;;
2019/09/24 09:00:22;;;;;;;2.75;1.8;;;;;;;37.37;34.33105;95136.92;;;;
2019/09/24 09:01:52;;;;;;;2.3;1.9;;;;;;;37.65;33.15527;95126.5;;;;
2019/09/24 09:02:53;;;;;;;2.3;1.9;;;;;;;37.65;33.15527;95126.5;;;;
2019/09/24 09:03:54;;;;;;;2.7;1.9;;;;;;;37.8;31.96777;95119.56;;;;
2019/09/24 09:04:55;;;;;;;2.7;1.9;;;;;;;37.8;31.96777;95119.56;;;;
2019/09/24 09:05:57;;;;;;;4.199999;1.95;;;;;;;37.95;31.10352;95112.61;;;;
2019/09/24 09:06:58;;;;;;;4.199999;1.95;;;;;;;37.95;31.10352;95112.61;;;;
2019/09/24 09:07:59;;;;;;;4.199999;1.95;;;;;;;37.95;31.10352;95112.61;;;;
2019/09/24 09:09:00;;;;;;;2.5;1.9;;;;;;;38.08;30.57031;95107.67;;;;
2019/09/24 09:10:03;;;;;;;2.5;1.9;;;;;;;38.08;30.57031;95107.67;;;;
2019/09/24 09:11:06;;;;;;;2.5;1.9;;;;;;;38.08;30.57031;95107.67;;;;
2019/09/24 09:12:07;;;;;;;2.8;1.9;;;;;;;37.83;30.19629;95115.34;;;;
2019/09/24 09:13:08;;;;;;;2.8;1.9;;;;;;;37.83;30.19629;95115.34;;;;
2019/09/24 09:14:10;;;;;;;3.35;2;;;;;;;36.99;30.55566;95107.71;;;;
2019/09/24 09:15:12;;;;;;;3.35;2;;;;;;;36.99;30.55566;95107.71;;;;
2019/09/24 09:16:13;;;;;;;3.35;2;;;;;;;36.99;30.55566;95107.71;;;;
2019/09/24 09:17:15;;;;;;;2.8;1.9;;;;;;;35.65;31.31543;95104.26;;;;
2019/09/24 09:18:16;;;;;;;2.8;1.9;;;;;;;35.65;31.31543;95104.26;;;;
2019/09/24 09:19:17;;;;;;;3.15;2;;;;;;;34.72;32.03027;95087.89;;;;
2019/09/24 09:20:18;;;;;;;3.15;2;;;;;;;34.72;32.03027;95087.89;;;;